createdAt,value
2018-06-04T00:02:27.985Z,23.09
2018-06-04T00:04:56.179Z,23.01
2018-06-04T00:07:24.340Z,22.90
2018-06-04T00:09:52.607Z,22.92
2018-06-04T00:12:20.762Z,22.66
2018-06-04T00:14:48.976Z,22.47
2018-06-04T00:17:17.199Z,22.26
2018-06-04T00:19:45.410Z,22.04
2018-06-04T00:22:13.583Z,21.83
2018-06-04T00:24:41.766Z,21.58
2018-06-04T00:27:09.901Z,21.52
2018-06-04T00:29:38.248Z,21.36
2018-06-04T00:32:07.070Z,21.10
2018-06-04T00:34:35.211Z,21.20
2018-06-04T00:37:03.412Z,21.01
2018-06-04T00:39:31.572Z,20.96
2018-06-04T00:41:59.791Z,20.93
2018-06-04T00:44:27.956Z,20.61
2018-06-04T00:46:56.212Z,20.50
2018-06-04T00:49:24.380Z,20.46
2018-06-04T00:51:52.601Z,20.40
2018-06-04T00:54:20.750Z,20.35
2018-06-04T00:56:49.027Z,20.24
2018-06-04T00:59:17.230Z,20.11
2018-06-04T01:01:45.559Z,19.92
2018-06-04T01:04:13.622Z,20.00
2018-06-04T01:06:41.906Z,19.95
2018-06-04T01:09:10.741Z,19.72
2018-06-04T01:11:39.015Z,19.61
2018-06-04T01:14:07.193Z,19.65
2018-06-04T01:16:35.344Z,19.56
2018-06-04T01:19:03.507Z,19.59
2018-06-04T01:21:31.893Z,19.63
2018-06-04T01:24:00.009Z,19.45
2018-06-04T01:26:28.190Z,19.37
2018-06-04T01:28:56.396Z,19.22
2018-06-04T01:31:24.553Z,19.42
2018-06-04T01:33:52.653Z,19.51
2018-06-04T01:36:20.797Z,19.40
2018-06-04T01:38:49.009Z,19.24
2018-06-04T01:41:17.158Z,19.28
2018-06-04T01:43:45.342Z,19.18
2018-06-04T01:46:14.124Z,19.17
2018-06-04T01:48:42.281Z,19.15
2018-06-04T01:51:10.346Z,19.07
2018-06-04T01:53:38.604Z,19.03
2018-06-04T01:56:06.775Z,18.99
2018-06-04T01:58:34.919Z,18.98
2018-06-04T02:01:03.031Z,19.07
2018-06-04T02:03:31.218Z,18.92
2018-06-04T02:05:59.491Z,18.81
2018-06-04T02:08:27.605Z,18.74
2018-06-04T02:10:55.872Z,18.84
2018-06-04T02:13:24.094Z,18.75
2018-06-04T02:15:52.277Z,18.68
2018-06-04T02:18:20.554Z,18.60
2018-06-04T02:20:48.984Z,18.57
2018-06-04T02:23:17.727Z,18.53
2018-06-04T02:25:45.820Z,18.47
2018-06-04T02:28:13.913Z,18.43
2018-06-04T02:30:42.035Z,18.37
2018-06-04T02:33:10.252Z,18.44
2018-06-04T02:35:38.494Z,18.41
2018-06-04T02:38:06.743Z,18.50
2018-06-04T02:40:34.894Z,18.54
2018-06-04T02:43:03.186Z,18.57
2018-06-04T02:45:31.494Z,18.53
2018-06-04T02:47:59.730Z,18.44
2018-06-04T02:50:28.067Z,18.29
2018-06-04T02:52:56.351Z,18.22
2018-06-04T02:55:24.520Z,18.24
2018-06-04T02:57:52.685Z,18.30
2018-06-04T03:00:21.886Z,18.30
2018-06-04T03:02:50.110Z,18.42
2018-06-04T03:05:19.232Z,18.38
2018-06-04T03:07:47.474Z,18.35
2018-06-04T03:10:15.719Z,18.20
2018-06-04T03:12:43.810Z,18.06
2018-06-04T03:15:11.943Z,18.03
2018-06-04T03:17:40.097Z,18.00
2018-06-04T03:20:08.304Z,18.10
2018-06-04T03:22:36.596Z,17.94
2018-06-04T03:25:04.821Z,17.94
2018-06-04T03:27:33.163Z,17.83
2018-06-04T03:30:01.505Z,17.85
2018-06-04T03:32:29.797Z,17.74
2018-06-04T03:34:58.090Z,17.69
2018-06-04T03:37:26.221Z,17.69
2018-06-04T03:39:54.403Z,17.86
2018-06-04T03:42:23.088Z,17.83
2018-06-04T03:44:51.255Z,17.80
2018-06-04T03:47:19.427Z,17.83
2018-06-04T03:49:47.566Z,17.81
2018-06-04T03:52:15.706Z,17.87
2018-06-04T03:54:43.909Z,18.01
2018-06-04T03:57:12.147Z,17.86
2018-06-04T03:59:40.290Z,17.96
2018-06-04T04:02:08.445Z,17.88
2018-06-04T04:04:36.659Z,17.85
2018-06-04T04:07:04.828Z,17.88
2018-06-04T04:09:33.230Z,17.79
2018-06-04T04:12:01.417Z,17.85
2018-06-04T04:14:29.736Z,17.93
2018-06-04T04:16:58.248Z,18.02
2018-06-04T04:19:26.803Z,18.12
2018-06-04T04:22:24.486Z,18.20
2018-06-04T04:24:52.768Z,18.14
2018-06-04T04:27:20.945Z,18.05
2018-06-04T04:29:49.341Z,18.04
2018-06-04T04:32:17.559Z,18.04
2018-06-04T04:34:45.937Z,18.03
2018-06-04T04:37:14.265Z,18.31
2018-06-04T04:39:42.447Z,18.57
2018-06-04T04:42:10.768Z,18.42
2018-06-04T04:44:38.999Z,18.29
2018-06-04T04:47:07.134Z,18.38
2018-06-04T04:49:35.435Z,18.34
2018-06-04T04:52:03.625Z,18.34
2018-06-04T04:54:31.839Z,18.36
2018-06-04T04:57:00.279Z,18.36
2018-06-04T04:59:29.220Z,18.66
2018-06-04T05:01:57.574Z,18.81
2018-06-04T05:04:25.920Z,18.94
2018-06-04T05:06:54.158Z,18.88
2018-06-04T05:09:22.641Z,18.80
2018-06-04T05:11:50.828Z,18.94
2018-06-04T05:14:18.993Z,18.77
2018-06-04T05:16:47.216Z,18.70
2018-06-04T05:19:15.423Z,18.99
2018-06-04T05:21:43.875Z,19.30
2018-06-04T05:24:12.182Z,19.57
2018-06-04T05:26:40.410Z,19.62
2018-06-04T05:29:08.595Z,19.44
2018-06-04T05:31:36.857Z,19.35
2018-06-04T05:34:05.051Z,19.40
2018-06-04T05:36:34.412Z,19.79
2018-06-04T05:39:03.804Z,19.98
2018-06-04T05:41:32.553Z,20.81
2018-06-04T05:44:00.843Z,22.15
2018-06-04T05:46:29.193Z,23.39
2018-06-04T05:48:57.579Z,24.41
2018-06-04T05:51:25.765Z,25.65
2018-06-04T05:53:54.193Z,25.32
2018-06-04T05:56:22.483Z,26.43
2018-06-04T05:58:50.665Z,26.41
2018-06-04T06:01:18.994Z,26.91
2018-06-04T06:03:47.330Z,26.25
2018-06-04T06:06:15.547Z,27.52
2018-06-04T06:08:44.061Z,27.07
2018-06-04T06:11:12.248Z,28.69
2018-06-04T06:13:40.429Z,27.48
2018-06-04T06:16:08.775Z,28.71
2018-06-04T06:18:37.670Z,28.57
2018-06-04T06:21:05.974Z,27.69
2018-06-04T06:23:34.277Z,27.85
2018-06-04T06:26:02.516Z,27.21
2018-06-04T06:28:30.669Z,27.25
2018-06-04T06:30:58.917Z,25.84
2018-06-04T06:33:27.079Z,27.75
2018-06-04T06:35:55.611Z,26.05
2018-06-04T06:38:23.779Z,25.64
2018-06-04T06:40:52.204Z,24.30
2018-06-04T06:43:20.444Z,25.34
2018-06-04T06:45:49.017Z,26.49
2018-06-04T06:48:17.449Z,26.92
2018-06-04T06:50:45.659Z,27.01
2018-06-04T06:53:13.840Z,28.39
2018-06-04T06:55:41.930Z,28.65
2018-06-04T06:58:10.312Z,28.71
2018-06-04T07:00:38.973Z,30.25
2018-06-04T07:03:07.322Z,30.51
2018-06-04T07:05:35.478Z,30.11
2018-06-04T07:08:03.650Z,30.48
2018-06-04T07:10:31.995Z,29.79
2018-06-04T07:13:00.146Z,29.85
2018-06-04T07:15:28.312Z,30.69
2018-06-04T07:17:56.593Z,29.53
2018-06-04T07:20:24.801Z,27.74
2018-06-04T07:22:53.079Z,27.06
2018-06-04T07:25:21.313Z,25.78
2018-06-04T07:27:49.602Z,25.25
2018-06-04T07:30:18.003Z,25.26
2018-06-04T07:32:46.327Z,25.00
2018-06-04T07:35:14.721Z,24.71
2018-06-04T07:37:43.446Z,24.50
2018-06-04T07:40:12.043Z,24.31
2018-06-04T07:42:40.382Z,24.40
2018-06-04T07:45:08.541Z,24.69
2018-06-04T07:47:36.749Z,24.81
2018-06-04T07:50:05.010Z,24.80
2018-06-04T07:52:33.613Z,24.58
2018-06-04T07:55:01.852Z,24.58
2018-06-04T07:57:30.059Z,24.67
2018-06-04T07:59:58.374Z,24.93
2018-06-04T08:02:26.543Z,25.07
2018-06-04T08:04:54.819Z,25.19
2018-06-04T08:07:23.056Z,25.50
2018-06-04T08:09:51.220Z,25.51
2018-06-04T08:12:19.357Z,25.48
2018-06-04T08:14:48.043Z,25.13
2018-06-04T08:17:16.342Z,25.69
2018-06-04T08:19:45.267Z,25.81
2018-06-04T08:22:13.469Z,25.96
2018-06-04T08:24:41.626Z,26.17
2018-06-04T08:27:09.806Z,25.97
2018-06-04T08:29:38.100Z,25.74
2018-06-04T08:32:06.313Z,26.27
2018-06-04T08:34:34.449Z,26.23
2018-06-04T08:37:02.654Z,26.26
2018-06-04T08:39:30.877Z,26.14
2018-06-04T08:41:59.283Z,26.51
2018-06-04T08:44:27.495Z,26.30
2018-06-04T08:46:55.657Z,26.62
2018-06-04T08:49:23.887Z,26.70
2018-06-04T08:51:52.029Z,26.63
2018-06-04T08:54:20.277Z,26.76
2018-06-04T08:56:49.162Z,26.98
2018-06-04T08:59:17.541Z,27.00
2018-06-04T09:01:45.728Z,27.41
2018-06-04T09:04:13.837Z,27.24
2018-06-04T09:06:42.094Z,26.91
2018-06-04T09:09:10.801Z,26.83
2018-06-04T09:11:39.031Z,26.82
2018-06-04T09:14:07.369Z,27.02
2018-06-04T09:16:35.583Z,27.19
2018-06-04T09:19:03.740Z,27.57
2018-06-04T09:21:32.085Z,27.45
2018-06-04T09:24:00.480Z,27.32
2018-06-04T09:26:28.667Z,27.76
2018-06-04T09:28:56.869Z,27.77
2018-06-04T09:31:25.138Z,27.56
2018-06-04T09:33:53.791Z,27.66
2018-06-04T09:36:21.932Z,27.73
2018-06-04T09:38:50.139Z,27.84
2018-06-04T09:41:18.407Z,27.28
2018-06-04T09:43:46.653Z,27.48
2018-06-04T09:46:14.918Z,27.88
2018-06-04T09:48:43.291Z,28.02
2018-06-04T09:51:11.531Z,27.90
2018-06-04T09:53:39.796Z,27.47
2018-06-04T09:56:08.055Z,28.04
2018-06-04T09:58:36.279Z,28.34
2018-06-04T10:01:04.574Z,28.53
2018-06-04T10:03:32.689Z,28.73
2018-06-04T10:06:01.082Z,28.82
2018-06-04T10:08:29.349Z,29.00
2018-06-04T10:10:57.613Z,28.79
2018-06-04T10:13:25.794Z,28.80
2018-06-04T10:15:54.651Z,28.94
2018-06-04T10:18:23.094Z,28.92
2018-06-04T10:20:51.227Z,28.95
2018-06-04T10:23:19.505Z,29.19
2018-06-04T10:25:47.788Z,28.69
2018-06-04T10:28:15.937Z,29.03
2018-06-04T10:30:44.332Z,29.61
2018-06-04T10:33:12.618Z,29.38
2018-06-04T10:35:40.820Z,28.82
2018-06-04T10:38:09.160Z,28.22
2018-06-04T10:40:37.449Z,28.87
2018-06-04T10:43:05.765Z,29.00
2018-06-04T10:45:33.947Z,29.36
2018-06-04T10:48:02.198Z,29.35
2018-06-04T10:50:30.339Z,29.46
2018-06-04T10:52:59.627Z,29.89
2018-06-04T10:55:27.832Z,29.24
2018-06-04T10:57:56.010Z,28.99
2018-06-04T11:00:24.365Z,28.87
2018-06-04T11:02:52.868Z,28.85
2018-06-04T11:05:21.094Z,28.57
2018-06-04T11:07:49.316Z,28.74
2018-06-04T11:10:17.598Z,29.20
2018-06-04T11:12:45.861Z,29.63
2018-06-04T11:15:14.098Z,30.28
2018-06-04T11:17:42.310Z,30.29
2018-06-04T11:20:10.459Z,29.92
2018-06-04T11:22:45.517Z,30.12
2018-06-04T11:25:13.835Z,29.84
2018-06-04T11:27:42.061Z,29.76
2018-06-04T11:30:10.300Z,29.55
2018-06-04T11:32:38.625Z,29.91
2018-06-04T11:35:06.810Z,29.65
2018-06-04T11:37:35.151Z,29.23
2018-06-04T11:40:04.314Z,29.60
2018-06-04T11:42:32.682Z,29.60
2018-06-04T11:45:01.043Z,29.65
2018-06-04T11:47:29.343Z,30.56
2018-06-04T11:49:57.498Z,30.43
2018-06-04T11:52:26.116Z,30.30
2018-06-04T11:54:54.213Z,30.04
2018-06-04T11:57:22.482Z,29.78
2018-06-04T11:59:50.693Z,29.85
2018-06-04T12:02:18.872Z,29.74
2018-06-04T12:04:46.982Z,30.24
2018-06-04T12:07:15.170Z,30.46
2018-06-04T12:09:43.372Z,30.89
2018-06-04T12:12:11.526Z,31.38
2018-06-04T12:14:39.697Z,31.32
2018-06-04T12:17:08.088Z,31.93
2018-06-04T12:19:36.216Z,32.10
2018-06-04T12:22:04.891Z,32.09
2018-06-04T12:24:33.048Z,32.13
2018-06-04T12:27:01.289Z,32.24
2018-06-04T12:29:29.483Z,32.15
2018-06-04T12:31:57.685Z,32.22
2018-06-04T12:34:26.070Z,31.71
2018-06-04T12:36:54.385Z,31.32
2018-06-04T12:39:22.486Z,30.41
2018-06-04T12:41:50.748Z,29.97
2018-06-04T12:44:19.006Z,29.52
2018-06-04T12:46:47.185Z,29.26
2018-06-04T12:49:15.462Z,29.27
2018-06-04T12:51:43.674Z,29.05
2018-06-04T12:54:12.462Z,29.42
2018-06-04T12:56:40.663Z,29.42
2018-06-04T12:59:09.240Z,29.40
2018-06-04T13:01:37.453Z,29.18
2018-06-04T13:04:05.802Z,29.40
2018-06-04T13:06:33.899Z,29.74
2018-06-04T13:09:02.801Z,30.38
2018-06-04T13:11:30.963Z,29.87
2018-06-04T13:13:59.163Z,30.15
2018-06-04T13:16:27.656Z,30.01
2018-06-04T13:18:55.951Z,30.18
2018-06-04T13:21:24.125Z,30.45
2018-06-04T13:23:52.305Z,30.57
2018-06-04T13:26:20.555Z,30.80
2018-06-04T13:28:48.787Z,30.70
2018-06-04T13:31:17.000Z,30.65
2018-06-04T13:33:45.285Z,30.81
2018-06-04T13:36:14.051Z,31.09
2018-06-04T13:38:42.224Z,31.38
2018-06-04T13:41:10.419Z,31.07
2018-06-04T13:43:38.593Z,30.87
2018-06-04T13:46:06.849Z,30.86
2018-06-04T13:48:35.036Z,30.41
2018-06-04T13:51:03.299Z,30.60
2018-06-04T13:53:31.572Z,30.94
2018-06-04T13:55:59.973Z,30.55
2018-06-04T13:58:28.243Z,30.73
2018-06-04T14:00:56.529Z,30.49
2018-06-04T14:03:24.676Z,30.35
2018-06-04T14:05:52.955Z,30.34
2018-06-04T14:08:21.360Z,30.29
2018-06-04T14:10:49.607Z,30.15
2018-06-04T14:13:17.882Z,30.50
2018-06-04T14:15:46.178Z,30.43
2018-06-04T14:18:15.057Z,30.34
2018-06-04T14:20:43.737Z,30.24
2018-06-04T14:23:11.912Z,29.90
2018-06-04T14:25:40.093Z,30.23
2018-06-04T14:28:08.973Z,31.00
2018-06-04T14:30:37.123Z,31.35
2018-06-04T14:33:05.353Z,31.06
2018-06-04T14:35:33.545Z,30.33
2018-06-04T14:38:01.786Z,30.49
2018-06-04T14:40:30.032Z,30.43
2018-06-04T14:42:58.200Z,30.80
2018-06-04T14:45:26.398Z,31.01
2018-06-04T14:47:54.456Z,30.99
2018-06-04T14:50:22.634Z,31.04
2018-06-04T14:52:50.929Z,30.91
2018-06-04T14:55:19.752Z,30.91
2018-06-04T14:57:48.083Z,30.51
2018-06-04T15:00:16.286Z,29.92
2018-06-04T15:02:44.458Z,29.71
2018-06-04T15:05:12.621Z,29.54
2018-06-04T15:07:40.864Z,29.63
2018-06-04T15:10:09.319Z,29.57
2018-06-04T15:12:37.530Z,29.19
2018-06-04T15:15:06.329Z,29.16
2018-06-04T15:17:34.587Z,29.33
2018-06-04T15:20:02.961Z,30.02
2018-06-04T15:22:31.148Z,30.29
2018-06-04T15:24:59.281Z,30.35
2018-06-04T15:27:27.495Z,29.88
2018-06-04T15:29:55.738Z,29.83
2018-06-04T15:32:24.305Z,29.68
2018-06-04T15:34:52.432Z,30.02
2018-06-04T15:37:21.193Z,30.02
2018-06-04T15:39:49.338Z,29.92
2018-06-04T15:42:17.577Z,30.29
2018-06-04T15:44:45.816Z,30.31
2018-06-04T15:47:14.075Z,30.37
2018-06-04T15:49:45.090Z,30.19
2018-06-04T15:52:13.266Z,30.11
2018-06-04T15:54:41.418Z,29.79
2018-06-04T15:57:09.647Z,30.28
2018-06-04T15:59:38.421Z,30.53
2018-06-04T16:02:06.674Z,30.63
2018-06-04T16:04:34.842Z,30.98
2018-06-04T16:07:02.879Z,30.46
2018-06-04T16:09:31.156Z,30.50
2018-06-04T16:12:00.164Z,30.43
2018-06-04T16:14:28.538Z,30.21
2018-06-04T16:16:56.766Z,30.12
2018-06-04T16:19:25.562Z,30.37
2018-06-04T16:21:53.761Z,30.24
2018-06-04T16:24:22.149Z,30.29
2018-06-04T16:26:50.368Z,30.29
2018-06-04T16:29:18.558Z,30.28
2018-06-04T16:31:46.847Z,30.11
2018-06-04T16:34:15.093Z,30.01
2018-06-04T16:36:43.574Z,30.20
2018-06-04T16:39:11.807Z,30.20
2018-06-04T16:41:40.076Z,30.13
2018-06-04T16:44:08.349Z,30.08
2018-06-04T16:46:36.543Z,29.91
2018-06-04T16:49:04.857Z,30.09
2018-06-04T16:51:33.051Z,30.15
2018-06-04T16:54:01.322Z,30.10
2018-06-04T16:56:30.344Z,29.99
2018-06-04T16:58:58.526Z,30.08
2018-06-04T17:01:26.738Z,29.99
2018-06-04T17:03:55.046Z,29.98
2018-06-04T17:06:23.179Z,29.86
2018-06-04T17:08:51.693Z,29.53
2018-06-04T17:11:20.042Z,29.45
2018-06-04T17:13:48.517Z,29.46
2018-06-04T17:16:16.981Z,29.50
2018-06-04T17:18:45.336Z,29.34
2018-06-04T17:21:16.749Z,29.32
2018-06-04T17:23:46.494Z,29.22
2018-06-04T17:26:14.983Z,29.33
2018-06-04T17:28:43.188Z,29.31
2018-06-04T17:31:11.354Z,29.06
2018-06-04T17:33:39.815Z,29.14
2018-06-04T17:36:08.357Z,29.18
2018-06-04T17:38:36.643Z,29.11
2018-06-04T17:41:05.080Z,29.01
2018-06-04T17:43:33.979Z,29.01
2018-06-04T17:46:02.255Z,28.91
2018-06-04T17:48:30.633Z,28.85
2018-06-04T17:50:58.874Z,28.74
2018-06-04T17:53:27.317Z,28.73
2018-06-04T17:55:55.811Z,28.67
2018-06-04T17:58:24.203Z,28.64
2018-06-04T18:00:52.559Z,28.55
2018-06-04T18:03:21.081Z,28.51
2018-06-04T18:05:49.721Z,28.53
2018-06-04T18:08:18.043Z,28.42
2018-06-04T18:10:46.374Z,28.34
2018-06-04T18:13:14.742Z,28.24
2018-06-04T18:15:43.455Z,28.25
2018-06-04T18:18:12.090Z,28.18
2018-06-04T18:20:40.579Z,28.18
2018-06-04T18:23:08.984Z,28.07
2018-06-04T18:25:37.478Z,28.03
2018-06-04T18:28:05.701Z,27.87
2018-06-04T18:30:34.000Z,27.84
2018-06-04T18:33:02.182Z,27.72
2018-06-04T18:35:30.376Z,27.64
2018-06-04T18:37:58.639Z,27.69
2018-06-04T18:40:27.163Z,27.63
2018-06-04T18:42:55.402Z,27.57
2018-06-04T18:45:23.798Z,27.46
2018-06-04T18:47:53.029Z,27.39
2018-06-04T18:50:21.386Z,27.26
2018-06-04T18:52:49.888Z,27.17
2018-06-04T18:55:18.299Z,27.13
2018-06-04T18:57:46.982Z,27.01
2018-06-04T19:00:15.263Z,26.90
2018-06-04T19:02:43.539Z,26.82
2018-06-04T19:05:11.865Z,26.78
2018-06-04T19:07:40.247Z,26.67
2018-06-04T19:10:08.575Z,26.45
2018-06-04T19:12:37.091Z,26.22
2018-06-04T19:15:06.171Z,26.08
2018-06-04T19:17:34.567Z,25.93
2018-06-04T19:20:03.125Z,25.71
2018-06-04T19:22:31.448Z,25.70
2018-06-04T19:25:00.047Z,25.55
2018-06-04T19:27:28.604Z,25.39
2018-06-04T19:29:56.978Z,25.30
2018-06-04T19:32:25.547Z,25.28
2018-06-04T19:34:53.920Z,25.36
2018-06-04T19:37:22.402Z,25.29
2018-06-04T19:39:50.683Z,25.19
2018-06-04T19:42:19.218Z,25.18
2018-06-04T19:44:47.661Z,25.15
2018-06-04T19:47:15.997Z,25.08
2018-06-04T19:49:44.278Z,24.82
2018-06-04T19:52:12.642Z,24.52
2018-06-04T19:54:40.943Z,24.58
2018-06-04T19:57:09.402Z,24.40
2018-06-04T19:59:38.183Z,24.43
2018-06-04T20:02:06.608Z,24.48
2018-06-04T20:04:34.861Z,24.32
2018-06-04T20:07:08.938Z,24.38
2018-06-04T20:09:37.250Z,24.58
2018-06-04T20:12:05.562Z,24.72
2018-06-04T20:14:33.950Z,24.64
2018-06-04T20:17:02.369Z,24.61
2018-06-04T20:19:30.510Z,24.49
2018-06-04T20:21:58.886Z,24.44
2018-06-04T20:24:27.094Z,24.50
2018-06-04T20:26:55.396Z,24.58
2018-06-04T20:29:23.585Z,24.59
2018-06-04T20:31:51.812Z,24.50
2018-06-04T20:34:20.109Z,24.44
2018-06-04T20:36:48.845Z,24.43
2018-06-04T20:39:17.083Z,24.47
2018-06-04T20:41:45.310Z,24.32
2018-06-04T20:44:13.530Z,24.32
2018-06-04T20:46:41.841Z,24.18
2018-06-04T20:49:10.484Z,24.61
2018-06-04T20:51:38.705Z,24.67
2018-06-04T20:54:06.879Z,24.65
2018-06-04T20:56:35.259Z,24.73
2018-06-04T20:59:03.690Z,24.89
2018-06-04T21:01:32.001Z,25.00
2018-06-04T21:04:00.170Z,25.09
2018-06-04T21:06:28.356Z,25.23
2018-06-04T21:08:56.609Z,25.23
2018-06-04T21:11:24.750Z,25.14
2018-06-04T21:13:53.292Z,24.82
2018-06-04T21:16:21.454Z,24.54
2018-06-04T21:18:50.297Z,24.50
2018-06-04T21:21:18.523Z,24.33
2018-06-04T21:23:46.764Z,24.29
2018-06-04T21:26:14.978Z,24.09
2018-06-04T21:28:43.257Z,24.21
2018-06-04T21:31:11.461Z,24.50
2018-06-04T21:33:39.727Z,24.54
2018-06-04T21:36:08.072Z,24.40
2018-06-04T21:38:36.342Z,24.39
2018-06-04T21:41:04.641Z,24.15
2018-06-04T21:43:32.872Z,24.36
2018-06-04T21:46:01.088Z,24.18
2018-06-04T21:48:29.300Z,24.15
2018-06-04T21:50:57.632Z,24.13
2018-06-04T21:53:25.803Z,24.02
2018-06-04T21:55:55.031Z,24.53
2018-06-04T21:58:23.234Z,24.52
2018-06-04T22:00:51.705Z,24.17
2018-06-04T22:03:19.917Z,24.19
2018-06-04T22:05:48.041Z,23.92
2018-06-04T22:08:16.190Z,23.68
2018-06-04T22:10:44.563Z,24.11
2018-06-04T22:13:12.750Z,24.01
2018-06-04T22:15:41.089Z,24.06
2018-06-04T22:18:09.218Z,24.08
2018-06-04T22:20:37.426Z,24.10
2018-06-04T22:23:05.929Z,23.92
2018-06-04T22:25:34.198Z,24.21
2018-06-04T22:28:02.331Z,24.51
2018-06-04T22:30:30.469Z,24.58
2018-06-04T22:32:59.036Z,24.51
2018-06-04T22:35:27.250Z,24.18
2018-06-04T22:37:55.394Z,24.24
2018-06-04T22:40:23.536Z,24.29
2018-06-04T22:42:53.414Z,24.42
2018-06-04T22:45:21.609Z,24.42
2018-06-04T22:47:49.730Z,24.39
2018-06-04T22:50:17.862Z,24.42
2018-06-04T22:52:46.039Z,24.41
2018-06-04T22:55:14.147Z,24.46
2018-06-04T22:57:42.309Z,24.55
2018-06-04T23:00:23.185Z,24.40
2018-06-04T23:02:51.316Z,24.34
2018-06-04T23:05:19.428Z,24.32
2018-06-04T23:07:47.703Z,24.24
2018-06-04T23:10:15.961Z,24.22
2018-06-04T23:12:44.165Z,24.28
2018-06-04T23:15:13.153Z,24.29
2018-06-04T23:17:41.220Z,24.24
2018-06-04T23:20:09.393Z,24.20
2018-06-04T23:22:37.526Z,24.20
2018-06-04T23:25:05.699Z,24.17
2018-06-04T23:27:33.767Z,24.38
2018-06-04T23:30:03.176Z,24.27
2018-06-04T23:32:31.247Z,24.22
2018-06-04T23:34:59.311Z,24.29
2018-06-04T23:37:27.448Z,24.24
2018-06-04T23:39:58.894Z,24.20
2018-06-04T23:42:26.950Z,24.17
2018-06-04T23:44:55.061Z,24.03
2018-06-04T23:47:23.189Z,24.06
2018-06-04T23:49:58.855Z,24.06
2018-06-04T23:52:27.016Z,24.09
2018-06-04T23:54:55.150Z,24.00
2018-06-04T23:57:23.293Z,23.91
2018-06-04T23:59:51.431Z,23.94
